createdAt,value
2023-05-02T00:00:25.593Z,92797.00
2023-05-02T00:01:25.599Z,92797.00
2023-05-02T00:02:25.746Z,92795.00
2023-05-02T00:03:25.730Z,92793.00
2023-05-02T00:04:25.665Z,92793.00
2023-05-02T00:05:25.639Z,92795.00
2023-05-02T00:06:25.737Z,92795.00
2023-05-02T00:07:25.648Z,92793.00
2023-05-02T00:08:25.673Z,92793.00
2023-05-02T00:09:25.679Z,92795.00
2023-05-02T00:10:25.688Z,92795.00
2023-05-02T00:11:25.705Z,92795.00
2023-05-02T00:12:25.733Z,92795.00
2023-05-02T00:13:25.725Z,92795.00
2023-05-02T00:14:25.729Z,92793.00
2023-05-02T00:15:25.739Z,92789.00
2023-05-02T00:16:25.808Z,92793.00
2023-05-02T00:17:25.780Z,92791.00
2023-05-02T00:18:25.777Z,92787.00
2023-05-02T00:19:25.784Z,92789.00
2023-05-02T00:20:25.809Z,92787.00
2023-05-02T00:21:25.810Z,92789.00
2023-05-02T00:22:25.827Z,92789.00
2023-05-02T00:23:25.832Z,92789.00
2023-05-02T00:24:25.840Z,92791.00
2023-05-02T00:25:25.857Z,92791.00
2023-05-02T00:26:25.868Z,92793.00
2023-05-02T00:27:25.925Z,92793.00
2023-05-02T00:28:25.895Z,92793.00
2023-05-02T00:29:25.906Z,92793.00
2023-05-02T00:30:25.943Z,92793.00
2023-05-02T00:31:25.956Z,92793.00
2023-05-02T00:32:26.027Z,92791.00
2023-05-02T00:33:25.956Z,92793.00
2023-05-02T00:34:25.962Z,92791.00
2023-05-02T00:35:25.988Z,92791.00
2023-05-02T00:36:25.993Z,92791.00
2023-05-02T00:37:26.002Z,92793.00
2023-05-02T00:38:26.015Z,92793.00
2023-05-02T00:39:26.031Z,92791.00
2023-05-02T00:40:26.040Z,92791.00
2023-05-02T00:41:26.073Z,92789.00
2023-05-02T00:42:26.088Z,92791.00
2023-05-02T00:43:26.109Z,92791.00
2023-05-02T00:44:26.151Z,92791.00
2023-05-02T00:45:26.140Z,92791.00
2023-05-02T00:46:26.216Z,92789.00
2023-05-02T00:47:26.199Z,92793.00
2023-05-02T00:48:26.248Z,92793.00
2023-05-02T00:49:26.236Z,92789.00
2023-05-02T00:50:26.242Z,92791.00
2023-05-02T00:51:26.258Z,92789.00
2023-05-02T00:52:26.267Z,92787.00
2023-05-02T00:53:26.278Z,92789.00
2023-05-02T00:54:26.310Z,92787.00
2023-05-02T00:55:26.315Z,92785.00
2023-05-02T00:56:26.337Z,92789.00
2023-05-02T00:57:26.342Z,92789.00
2023-05-02T00:58:26.370Z,92785.00
2023-05-02T00:59:26.381Z,92791.00
2023-05-02T01:00:28.309Z,92785.00
2023-05-02T01:01:26.442Z,92791.00
2023-05-02T01:02:26.484Z,92789.00
2023-05-02T01:03:26.656Z,92791.00
2023-05-02T01:04:26.467Z,92791.00
2023-05-02T01:05:26.473Z,92791.00
2023-05-02T01:06:26.574Z,92791.00
2023-05-02T01:07:26.527Z,92791.00
2023-05-02T01:08:26.534Z,92793.00
2023-05-02T01:09:26.548Z,92793.00
2023-05-02T01:10:26.564Z,92791.00
2023-05-02T01:11:26.580Z,92793.00
2023-05-02T01:12:26.586Z,92793.00
2023-05-02T01:13:26.656Z,92795.00
2023-05-02T01:14:26.614Z,92793.00
2023-05-02T01:15:26.627Z,92793.00
2023-05-02T01:16:26.700Z,92793.00
2023-05-02T01:17:26.695Z,92793.00
2023-05-02T01:18:26.709Z,92795.00
2023-05-02T01:19:26.701Z,92793.00
2023-05-02T01:20:26.713Z,92793.00
2023-05-02T01:21:26.734Z,92797.00
2023-05-02T01:22:26.753Z,92793.00
2023-05-02T01:23:26.772Z,92795.00
2023-05-02T01:24:26.793Z,92797.00
2023-05-02T01:25:26.813Z,92793.00
2023-05-02T01:26:26.823Z,92797.00
2023-05-02T01:27:26.835Z,92799.00
2023-05-02T01:28:26.848Z,92797.00
2023-05-02T01:29:26.869Z,92797.00
2023-05-02T01:30:26.892Z,92797.00
2023-05-02T01:31:26.945Z,92797.00
2023-05-02T01:32:26.941Z,92801.00
2023-05-02T01:33:26.939Z,92801.00
2023-05-02T01:34:26.930Z,92799.00
2023-05-02T01:35:26.990Z,92799.00
2023-05-02T01:36:27.000Z,92799.00
2023-05-02T01:37:26.949Z,92799.00
2023-05-02T01:38:26.966Z,92801.00
2023-05-02T01:39:26.984Z,92801.00
2023-05-02T01:40:26.979Z,92797.00
2023-05-02T01:41:26.997Z,92801.00
2023-05-02T01:42:26.989Z,92803.00
2023-05-02T01:43:27.010Z,92801.00
2023-05-02T01:44:26.991Z,92803.00
2023-05-02T01:45:26.974Z,92801.00
2023-05-02T01:46:27.020Z,92803.00
2023-05-02T01:47:26.972Z,92805.00
2023-05-02T01:48:26.961Z,92805.00
2023-05-02T01:49:26.951Z,92805.00
2023-05-02T01:50:26.922Z,92805.00
2023-05-02T01:51:26.911Z,92805.00
2023-05-02T01:52:26.899Z,92810.00
2023-05-02T01:53:26.921Z,92810.00
2023-05-02T01:54:26.870Z,92809.00
2023-05-02T01:55:26.855Z,92812.00
2023-05-02T01:56:26.835Z,92810.00
2023-05-02T01:57:26.814Z,92810.00
2023-05-02T01:58:26.801Z,92809.00
2023-05-02T01:59:26.774Z,92810.00
2023-05-02T02:00:26.775Z,92810.00
2023-05-02T02:01:26.827Z,92809.00
2023-05-02T02:02:26.708Z,92810.00
2023-05-02T02:03:26.743Z,92810.00
2023-05-02T02:04:26.683Z,92812.00
2023-05-02T02:05:26.629Z,92812.00
2023-05-02T02:06:26.650Z,92812.00
2023-05-02T02:07:26.575Z,92812.00
2023-05-02T02:08:26.539Z,92810.00
2023-05-02T02:09:26.514Z,92810.00
2023-05-02T02:10:26.479Z,92812.00
2023-05-02T02:11:26.447Z,92810.00
2023-05-02T02:12:26.426Z,92810.00
2023-05-02T02:13:26.404Z,92810.00
2023-05-02T02:14:26.356Z,92810.00
2023-05-02T02:15:26.326Z,92809.00
2023-05-02T02:16:26.348Z,92812.00
2023-05-02T02:17:26.297Z,92812.00
2023-05-02T02:18:26.231Z,92810.00
2023-05-02T02:19:26.210Z,92810.00
2023-05-02T02:20:26.166Z,92810.00
2023-05-02T02:21:26.138Z,92810.00
2023-05-02T02:22:26.085Z,92814.00
2023-05-02T02:23:26.070Z,92814.00
2023-05-02T02:24:26.031Z,92814.00
2023-05-02T02:25:26.000Z,92818.00
2023-05-02T02:26:25.963Z,92818.00
2023-05-02T02:27:25.931Z,92818.00
2023-05-02T02:28:25.894Z,92822.00
2023-05-02T02:29:25.865Z,92822.00
2023-05-02T02:30:25.845Z,92824.00
2023-05-02T02:31:25.932Z,92822.00
2023-05-02T02:32:25.785Z,92824.00
2023-05-02T02:33:25.730Z,92824.00
2023-05-02T02:34:25.704Z,92826.00
2023-05-02T02:35:25.676Z,92824.00
2023-05-02T02:36:25.643Z,92824.00
2023-05-02T02:37:25.594Z,92826.00
2023-05-02T02:38:25.578Z,92826.00
2023-05-02T02:39:25.619Z,92826.00
2023-05-02T02:40:25.496Z,92826.00
2023-05-02T02:41:25.466Z,92826.00
2023-05-02T02:42:25.435Z,92828.00
2023-05-02T02:43:25.397Z,92828.00
2023-05-02T02:44:25.352Z,92830.00
2023-05-02T02:45:25.311Z,92828.00
2023-05-02T02:46:25.335Z,92830.00
2023-05-02T02:47:25.226Z,92832.00
2023-05-02T02:48:25.184Z,92834.00
2023-05-02T02:49:25.165Z,92834.00
2023-05-02T02:50:25.126Z,92836.00
2023-05-02T02:51:25.080Z,92836.00
2023-05-02T02:52:25.045Z,92834.00
2023-05-02T02:53:25.009Z,92834.00
2023-05-02T02:54:27.299Z,92834.00
2023-05-02T02:55:25.138Z,92834.00
2023-05-02T02:56:25.097Z,92832.00
2023-05-02T02:57:25.056Z,92834.00
2023-05-02T02:58:25.025Z,92834.00
2023-05-02T02:59:24.988Z,92836.00
2023-05-02T03:00:24.987Z,92832.00
2023-05-02T03:01:24.934Z,92836.00
2023-05-02T03:02:24.881Z,92836.00
2023-05-02T03:03:24.980Z,92836.00
2023-05-02T03:04:24.801Z,92838.00
2023-05-02T03:05:24.779Z,92838.00
2023-05-02T03:06:24.757Z,92840.00
2023-05-02T03:07:24.698Z,92838.00
2023-05-02T03:08:24.668Z,92840.00
2023-05-02T03:09:24.633Z,92842.00
2023-05-02T03:10:24.595Z,92842.00
2023-05-02T03:11:24.566Z,92844.00
2023-05-02T03:12:24.508Z,92844.00
2023-05-02T03:13:24.470Z,92846.00
2023-05-02T03:14:24.440Z,92844.00
2023-05-02T03:15:24.399Z,92844.00
2023-05-02T03:16:24.396Z,92842.00
2023-05-02T03:17:26.329Z,92846.00
2023-05-02T03:18:24.269Z,92846.00
2023-05-02T03:19:24.241Z,92842.00
2023-05-02T03:20:24.203Z,92844.00
2023-05-02T03:21:24.171Z,92840.00
2023-05-02T03:22:24.136Z,92842.00
2023-05-02T03:23:24.090Z,92840.00
2023-05-02T03:24:24.048Z,92838.00
2023-05-02T03:25:24.017Z,92836.00
2023-05-02T03:26:24.000Z,92842.00
2023-05-02T03:27:23.952Z,92840.00
2023-05-02T03:28:23.937Z,92840.00
2023-05-02T03:29:23.890Z,92838.00
2023-05-02T03:30:23.847Z,92840.00
2023-05-02T03:31:26.210Z,92838.00
2023-05-02T03:32:23.816Z,92838.00
2023-05-02T03:33:23.745Z,92838.00
2023-05-02T03:34:23.672Z,92840.00
2023-05-02T03:35:23.634Z,92838.00
2023-05-02T03:36:23.607Z,92840.00
2023-05-02T03:37:23.540Z,92842.00
2023-05-02T03:38:23.483Z,92842.00
2023-05-02T03:39:23.453Z,92840.00
2023-05-02T03:40:23.406Z,92840.00
2023-05-02T03:41:23.366Z,92840.00
2023-05-02T03:42:23.334Z,92844.00
2023-05-02T03:43:23.271Z,92842.00
2023-05-02T03:44:23.256Z,92844.00
2023-05-02T03:45:23.195Z,92844.00
2023-05-02T03:46:23.244Z,92846.00
2023-05-02T03:47:23.155Z,92846.00
2023-05-02T03:48:23.058Z,92846.00
2023-05-02T03:49:23.010Z,92846.00
2023-05-02T03:50:22.968Z,92846.00
2023-05-02T03:51:22.927Z,92848.00
2023-05-02T03:52:22.873Z,92850.00
2023-05-02T03:53:22.815Z,92852.00
2023-05-02T03:54:22.776Z,92852.00
2023-05-02T03:55:22.743Z,92852.00
2023-05-02T03:56:22.698Z,92854.00
2023-05-02T03:57:22.667Z,92850.00
2023-05-02T03:58:22.633Z,92852.00
2023-05-02T03:59:22.557Z,92852.00
2023-05-02T04:00:22.507Z,92854.00
2023-05-02T04:01:22.460Z,92854.00
2023-05-02T04:02:22.519Z,92852.00
2023-05-02T04:03:22.407Z,92852.00
2023-05-02T04:04:22.362Z,92854.00
2023-05-02T04:05:22.287Z,92852.00
2023-05-02T04:06:22.259Z,92854.00
2023-05-02T04:07:22.173Z,92854.00
2023-05-02T04:08:22.151Z,92856.00
2023-05-02T04:09:22.076Z,92863.00
2023-05-02T04:10:22.032Z,92863.00
2023-05-02T04:11:21.988Z,92865.00
2023-05-02T04:12:21.943Z,92863.00
2023-05-02T04:13:21.908Z,92867.00
2023-05-02T04:14:21.850Z,92867.00
2023-05-02T04:15:21.792Z,92867.00
2023-05-02T04:16:21.797Z,92867.00
2023-05-02T04:17:21.712Z,92871.00
2023-05-02T04:18:21.685Z,92873.00
2023-05-02T04:19:21.623Z,92873.00
2023-05-02T04:20:21.587Z,92873.00
2023-05-02T04:21:21.545Z,92873.00
2023-05-02T04:22:21.489Z,92875.00
2023-05-02T04:23:21.441Z,92877.00
2023-05-02T04:24:21.404Z,92873.00
2023-05-02T04:25:21.382Z,92877.00
2023-05-02T04:26:21.312Z,92873.00
2023-05-02T04:27:21.270Z,92875.00
2023-05-02T04:28:21.235Z,92873.00
2023-05-02T04:29:21.185Z,92875.00
2023-05-02T04:30:21.150Z,92873.00
2023-05-02T04:31:21.156Z,92877.00
2023-05-02T04:32:21.054Z,92881.00
2023-05-02T04:33:21.013Z,92877.00
2023-05-02T04:34:20.960Z,92881.00
2023-05-02T04:35:20.914Z,92885.00
2023-05-02T04:36:20.866Z,92887.00
2023-05-02T04:37:21.196Z,92889.00
2023-05-02T04:38:20.780Z,92889.00
2023-05-02T04:39:20.745Z,92889.00
2023-05-02T04:40:20.717Z,92891.00
2023-05-02T04:41:20.653Z,92889.00
2023-05-02T04:42:20.609Z,92891.00
2023-05-02T04:43:21.439Z,92893.00
2023-05-02T04:44:20.665Z,92893.00
2023-05-02T04:45:20.626Z,92894.00
2023-05-02T04:46:20.621Z,92893.00
2023-05-02T04:47:20.690Z,92894.00
2023-05-02T04:48:20.502Z,92894.00
2023-05-02T04:49:20.476Z,92896.00
2023-05-02T04:50:20.426Z,92898.00
2023-05-02T04:51:20.376Z,92902.00
2023-05-02T04:52:20.341Z,92902.00
2023-05-02T04:53:20.282Z,92900.00
2023-05-02T04:54:20.257Z,92902.00
2023-05-02T04:55:20.256Z,92906.00
2023-05-02T04:56:20.205Z,92906.00
2023-05-02T04:57:21.351Z,92910.00
2023-05-02T04:58:20.147Z,92910.00
2023-05-02T04:59:20.121Z,92910.00
2023-05-02T05:00:20.098Z,92910.00
2023-05-02T05:01:20.110Z,92912.00
2023-05-02T05:02:20.156Z,92908.00
2023-05-02T05:03:20.038Z,92914.00
2023-05-02T05:04:20.023Z,92912.00
2023-05-02T05:05:20.000Z,92912.00
2023-05-02T05:06:19.898Z,92914.00
2023-05-02T05:07:19.879Z,92912.00
2023-05-02T05:08:19.860Z,92914.00
2023-05-02T05:09:19.867Z,92914.00
2023-05-02T05:10:19.837Z,92916.00
2023-05-02T05:11:19.867Z,92918.00
2023-05-02T05:12:19.855Z,92920.00
2023-05-02T05:13:19.830Z,92924.00
2023-05-02T05:14:19.820Z,92922.00
2023-05-02T05:15:19.843Z,92922.00
2023-05-02T05:16:19.887Z,92922.00
2023-05-02T05:17:19.880Z,92924.00
2023-05-02T05:18:19.840Z,92928.00
2023-05-02T05:19:19.841Z,92928.00
2023-05-02T05:20:19.857Z,92926.00
2023-05-02T05:21:19.861Z,92926.00
2023-05-02T05:22:19.868Z,92932.00
2023-05-02T05:23:19.859Z,92932.00
2023-05-02T05:24:19.910Z,92932.00
2023-05-02T05:25:19.914Z,92934.00
2023-05-02T05:26:19.952Z,92934.00
2023-05-02T05:27:20.026Z,92934.00
2023-05-02T05:28:20.042Z,92932.00
2023-05-02T05:29:20.085Z,92934.00
2023-05-02T05:30:20.170Z,92941.00
2023-05-02T05:31:20.272Z,92940.00
2023-05-02T05:32:20.266Z,92940.00
2023-05-02T05:33:20.378Z,92943.00
2023-05-02T05:34:20.359Z,92941.00
2023-05-02T05:35:20.389Z,92941.00
2023-05-02T05:36:22.814Z,92941.00
2023-05-02T05:37:20.368Z,92941.00
2023-05-02T05:38:20.347Z,92941.00
2023-05-02T05:39:20.334Z,92945.00
2023-05-02T05:40:20.306Z,92947.00
2023-05-02T05:41:20.272Z,92949.00
2023-05-02T05:42:20.228Z,92953.00
2023-05-02T05:43:20.211Z,92951.00
2023-05-02T05:44:20.168Z,92953.00
2023-05-02T05:45:20.115Z,92955.00
2023-05-02T05:46:20.080Z,92953.00
2023-05-02T05:47:20.079Z,92953.00
2023-05-02T05:48:20.022Z,92951.00
2023-05-02T05:49:19.946Z,92953.00
2023-05-02T05:50:19.905Z,92955.00
2023-05-02T05:51:19.968Z,92953.00
2023-05-02T05:52:19.815Z,92953.00
2023-05-02T05:53:19.765Z,92955.00
2023-05-02T05:54:19.725Z,92959.00
2023-05-02T05:55:19.671Z,92961.00
2023-05-02T05:56:19.634Z,92959.00
2023-05-02T05:57:19.550Z,92961.00
2023-05-02T05:58:19.487Z,92963.00
2023-05-02T05:59:19.437Z,92961.00
2023-05-02T06:00:19.385Z,92965.00
2023-05-02T06:01:19.310Z,92961.00
2023-05-02T06:02:19.292Z,92967.00
2023-05-02T06:03:19.285Z,92967.00
2023-05-02T06:04:19.192Z,92969.00
2023-05-02T06:05:19.085Z,92971.00
2023-05-02T06:06:19.104Z,92969.00
2023-05-02T06:07:18.966Z,92973.00
2023-05-02T06:08:18.903Z,92973.00
2023-05-02T06:09:18.847Z,92969.00
2023-05-02T06:10:18.784Z,92971.00
2023-05-02T06:11:18.731Z,92971.00
2023-05-02T06:12:18.689Z,92975.00
2023-05-02T06:13:18.583Z,92975.00
2023-05-02T06:14:18.564Z,92977.00
2023-05-02T06:15:18.465Z,92977.00
2023-05-02T06:16:18.522Z,92979.00
2023-05-02T06:17:18.341Z,92981.00
2023-05-02T06:18:18.276Z,92987.00
2023-05-02T06:19:18.208Z,92988.00
2023-05-02T06:20:18.754Z,92988.00
2023-05-02T06:21:18.085Z,92987.00
2023-05-02T06:22:18.019Z,92990.00
2023-05-02T06:23:17.953Z,92990.00
2023-05-02T06:24:17.882Z,92992.00
2023-05-02T06:25:17.838Z,92994.00
2023-05-02T06:26:17.769Z,92992.00
2023-05-02T06:27:17.753Z,92990.00
2023-05-02T06:28:17.681Z,92990.00
2023-05-02T06:29:17.644Z,92992.00
2023-05-02T06:30:17.617Z,92992.00
2023-05-02T06:31:17.632Z,92988.00
2023-05-02T06:32:17.574Z,92994.00
2023-05-02T06:33:17.575Z,92994.00
2023-05-02T06:34:17.515Z,92992.00
2023-05-02T06:35:17.531Z,92992.00
2023-05-02T06:36:17.516Z,92994.00
2023-05-02T06:37:17.508Z,92994.00
2023-05-02T06:38:17.507Z,92996.00
2023-05-02T06:39:17.487Z,92996.00
2023-05-02T06:40:17.459Z,92998.00
2023-05-02T06:41:18.314Z,92996.00
2023-05-02T06:42:17.441Z,92998.00
2023-05-02T06:43:17.444Z,92996.00
2023-05-02T06:44:17.456Z,93000.00
2023-05-02T06:45:17.453Z,92996.00
2023-05-02T06:46:17.467Z,93002.00
2023-05-02T06:47:17.475Z,93000.00
2023-05-02T06:48:17.491Z,93004.00
2023-05-02T06:49:17.413Z,93004.00
2023-05-02T06:50:17.411Z,93006.00
2023-05-02T06:51:17.400Z,93002.00
2023-05-02T06:52:17.425Z,93004.00
2023-05-02T06:53:17.476Z,93002.00
2023-05-02T06:54:17.523Z,93006.00
2023-05-02T06:55:17.572Z,93006.00
2023-05-02T06:56:17.636Z,93004.00
2023-05-02T06:57:17.675Z,93008.00
2023-05-02T06:58:17.716Z,93006.00
2023-05-02T06:59:17.787Z,93008.00
2023-05-02T07:00:17.824Z,93010.00
2023-05-02T07:01:17.882Z,93010.00
2023-05-02T07:02:17.940Z,93008.00
2023-05-02T07:03:18.017Z,93008.00
2023-05-02T07:04:18.086Z,93008.00
2023-05-02T07:05:18.131Z,93006.00
2023-05-02T07:06:18.233Z,93010.00
2023-05-02T07:07:18.241Z,93008.00
2023-05-02T07:08:18.293Z,93008.00
2023-05-02T07:09:18.366Z,93012.00
2023-05-02T07:10:18.425Z,93012.00
2023-05-02T07:11:19.118Z,93012.00
2023-05-02T07:12:18.559Z,93012.00
2023-05-02T07:13:18.639Z,93008.00
2023-05-02T07:14:18.685Z,93010.00
2023-05-02T07:15:18.758Z,93012.00
2023-05-02T07:16:18.831Z,93010.00
2023-05-02T07:17:18.872Z,93012.00
2023-05-02T07:18:18.976Z,93012.00
2023-05-02T07:19:18.931Z,93014.00
2023-05-02T07:20:18.921Z,93010.00
2023-05-02T07:21:18.896Z,93012.00
2023-05-02T07:22:23.730Z,93010.00
2023-05-02T07:23:18.862Z,93018.00
2023-05-02T07:24:18.811Z,93018.00
2023-05-02T07:25:18.807Z,93020.00
2023-05-02T07:26:18.751Z,93020.00
2023-05-02T07:27:18.797Z,93022.00
2023-05-02T07:28:18.690Z,93020.00
2023-05-02T07:29:18.691Z,93020.00
2023-05-02T07:30:18.646Z,93022.00
2023-05-02T07:31:19.066Z,93020.00
2023-05-02T07:32:18.760Z,93020.00
2023-05-02T07:33:18.641Z,93020.00
2023-05-02T07:34:18.574Z,93020.00
2023-05-02T07:35:18.566Z,93018.00
2023-05-02T07:36:18.540Z,93020.00
2023-05-02T07:37:18.510Z,93022.00
2023-05-02T07:38:18.548Z,93024.00
2023-05-02T07:39:18.477Z,93024.00
2023-05-02T07:40:18.434Z,93024.00
2023-05-02T07:41:18.419Z,93026.00
2023-05-02T07:42:18.398Z,93026.00
2023-05-02T07:43:18.338Z,93026.00
2023-05-02T07:44:18.297Z,93026.00
2023-05-02T07:45:18.287Z,93024.00
2023-05-02T07:46:18.341Z,93024.00
2023-05-02T07:47:18.177Z,93026.00
2023-05-02T07:48:18.154Z,93026.00
2023-05-02T07:49:18.094Z,93030.00
2023-05-02T07:50:18.040Z,93028.00
2023-05-02T07:51:18.002Z,93035.00
2023-05-02T07:52:17.944Z,93032.00
2023-05-02T07:53:17.914Z,93034.00
2023-05-02T07:54:17.861Z,93034.00
2023-05-02T07:55:17.805Z,93032.00
2023-05-02T07:56:17.743Z,93034.00
2023-05-02T07:57:17.698Z,93035.00
2023-05-02T07:58:17.675Z,93034.00
2023-05-02T07:59:17.846Z,93035.00
2023-05-02T08:00:17.561Z,93039.00
2023-05-02T08:01:17.529Z,93037.00
2023-05-02T08:02:17.539Z,93037.00
2023-05-02T08:03:17.541Z,93037.00
2023-05-02T08:04:17.740Z,93035.00
2023-05-02T08:05:17.421Z,93039.00
2023-05-02T08:06:17.400Z,93039.00
2023-05-02T08:07:17.342Z,93041.00
2023-05-02T08:08:17.306Z,93041.00
2023-05-02T08:09:17.286Z,93043.00
2023-05-02T08:10:17.260Z,93043.00
2023-05-02T08:11:17.234Z,93043.00
2023-05-02T08:12:17.196Z,93043.00
2023-05-02T08:13:17.175Z,93045.00
2023-05-02T08:14:17.211Z,93045.00
2023-05-02T08:15:17.245Z,93043.00
2023-05-02T08:16:17.324Z,93045.00
2023-05-02T08:17:19.248Z,93047.00
2023-05-02T08:18:17.333Z,93043.00
2023-05-02T08:19:17.346Z,93043.00
2023-05-02T08:20:17.349Z,93045.00
2023-05-02T08:21:17.342Z,93045.00
2023-05-02T08:22:17.297Z,93047.00
2023-05-02T08:23:17.270Z,93047.00
2023-05-02T08:24:17.240Z,93049.00
2023-05-02T08:25:17.227Z,93051.00
2023-05-02T08:26:17.203Z,93047.00
2023-05-02T08:27:17.168Z,93047.00
2023-05-02T08:28:17.125Z,93051.00
2023-05-02T08:29:17.119Z,93051.00
2023-05-02T08:30:17.101Z,93053.00
2023-05-02T08:31:17.167Z,93053.00
2023-05-02T08:32:17.143Z,93055.00
2023-05-02T08:33:17.121Z,93055.00
2023-05-02T08:34:17.118Z,93053.00
2023-05-02T08:35:17.132Z,93053.00
2023-05-02T08:36:17.140Z,93051.00
2023-05-02T08:37:17.165Z,93055.00
2023-05-02T08:38:17.166Z,93053.00
2023-05-02T08:39:17.187Z,93053.00
2023-05-02T08:40:22.082Z,93053.00
2023-05-02T08:41:18.145Z,93053.00
2023-05-02T08:42:17.092Z,93053.00
2023-05-02T08:43:17.034Z,93057.00
2023-05-02T08:44:16.986Z,93057.00
2023-05-02T08:45:16.988Z,93057.00
2023-05-02T08:46:16.908Z,93057.00
2023-05-02T08:47:16.835Z,93059.00
2023-05-02T08:48:16.865Z,93061.00
2023-05-02T08:49:16.701Z,93061.00
2023-05-02T08:50:16.644Z,93061.00
2023-05-02T08:51:16.560Z,93063.00
2023-05-02T08:52:16.503Z,93061.00
2023-05-02T08:53:16.461Z,93063.00
2023-05-02T08:54:16.444Z,93063.00
2023-05-02T08:55:16.415Z,93065.00
2023-05-02T08:56:16.386Z,93063.00
2023-05-02T08:57:16.366Z,93063.00
2023-05-02T08:58:17.635Z,93067.00
2023-05-02T08:59:16.331Z,93067.00
2023-05-02T09:00:16.267Z,93065.00
2023-05-02T09:01:16.364Z,93067.00
2023-05-02T09:02:16.197Z,93067.00
2023-05-02T09:03:16.221Z,93067.00
2023-05-02T09:04:16.773Z,93063.00
2023-05-02T09:05:16.105Z,93065.00
2023-05-02T09:06:16.124Z,93061.00
2023-05-02T09:07:16.027Z,93065.00
2023-05-02T09:08:15.988Z,93063.00
2023-05-02T09:09:17.214Z,93065.00
2023-05-02T09:10:15.885Z,93067.00
2023-05-02T09:11:15.843Z,93069.00
2023-05-02T09:12:15.762Z,93071.00
2023-05-02T09:13:15.706Z,93069.00
2023-05-02T09:14:15.643Z,93065.00
2023-05-02T09:15:16.972Z,93071.00
2023-05-02T09:16:15.603Z,93071.00
2023-05-02T09:17:15.476Z,93069.00
2023-05-02T09:18:15.484Z,93069.00
2023-05-02T09:19:15.496Z,93067.00
2023-05-02T09:20:15.309Z,93067.00
2023-05-02T09:21:16.215Z,93069.00
2023-05-02T09:22:15.189Z,93069.00
2023-05-02T09:23:15.120Z,93069.00
2023-05-02T09:24:15.086Z,93069.00
2023-05-02T09:25:15.014Z,93069.00
2023-05-02T09:26:14.952Z,93069.00
2023-05-02T09:27:14.882Z,93067.00
2023-05-02T09:28:14.817Z,93063.00
2023-05-02T09:29:14.760Z,93069.00
2023-05-02T09:30:14.692Z,93069.00
2023-05-02T09:31:16.891Z,93067.00
2023-05-02T09:32:14.646Z,93069.00
2023-05-02T09:33:14.558Z,93069.00
2023-05-02T09:34:14.453Z,93069.00
2023-05-02T09:35:14.393Z,93069.00
2023-05-02T09:36:14.303Z,93073.00
2023-05-02T09:37:14.326Z,93071.00
2023-05-02T09:38:14.231Z,93071.00
2023-05-02T09:39:14.119Z,93073.00
2023-05-02T09:40:14.056Z,93075.00
2023-05-02T09:41:14.002Z,93075.00
2023-05-02T09:42:13.960Z,93075.00
2023-05-02T09:43:13.880Z,93073.00
2023-05-02T09:44:13.811Z,93075.00
2023-05-02T09:45:13.756Z,93077.00
2023-05-02T09:46:13.738Z,93077.00
2023-05-02T09:47:13.628Z,93081.00
2023-05-02T09:48:13.558Z,93082.00
2023-05-02T09:49:13.503Z,93079.00
2023-05-02T09:50:13.444Z,93079.00
2023-05-02T09:51:13.362Z,93079.00
2023-05-02T09:52:13.363Z,93081.00
2023-05-02T09:53:13.339Z,93079.00
2023-05-02T09:54:14.271Z,93077.00
2023-05-02T09:55:13.332Z,93081.00
2023-05-02T09:56:13.339Z,93081.00
2023-05-02T09:57:13.352Z,93079.00
2023-05-02T09:58:13.352Z,93082.00
2023-05-02T09:59:13.344Z,93081.00
2023-05-02T10:00:13.338Z,93086.00
2023-05-02T10:01:13.365Z,93079.00
2023-05-02T10:02:13.353Z,93084.00
2023-05-02T10:03:13.453Z,93084.00
2023-05-02T10:04:13.377Z,93084.00
2023-05-02T10:05:13.360Z,93082.00
2023-05-02T10:06:13.352Z,93084.00
2023-05-02T10:07:13.310Z,93084.00
2023-05-02T10:08:13.299Z,93086.00
2023-05-02T10:09:17.185Z,93082.00
2023-05-02T10:10:14.227Z,93084.00
2023-05-02T10:11:13.174Z,93086.00
2023-05-02T10:12:13.098Z,93081.00
2023-05-02T10:13:13.032Z,93081.00
2023-05-02T10:14:13.777Z,93084.00
2023-05-02T10:15:12.913Z,93081.00
2023-05-02T10:16:13.298Z,93081.00
2023-05-02T10:17:12.779Z,93079.00
2023-05-02T10:18:12.796Z,93079.00
2023-05-02T10:19:12.670Z,93073.00
2023-05-02T10:20:14.195Z,93071.00
2023-05-02T10:21:12.550Z,93075.00
2023-05-02T10:22:12.478Z,93069.00
2023-05-02T10:23:12.425Z,93069.00
2023-05-02T10:24:12.351Z,93069.00
2023-05-02T10:25:12.322Z,93069.00
2023-05-02T10:26:12.297Z,93069.00
2023-05-02T10:27:12.773Z,93067.00
2023-05-02T10:28:12.233Z,93065.00
2023-05-02T10:29:12.222Z,93065.00
2023-05-02T10:30:12.193Z,93067.00
2023-05-02T10:31:12.240Z,93071.00
2023-05-02T10:32:12.181Z,93065.00
2023-05-02T10:33:12.351Z,93067.00
2023-05-02T10:34:12.113Z,93063.00
2023-05-02T10:35:12.102Z,93059.00
2023-05-02T10:36:12.089Z,93061.00
2023-05-02T10:37:12.067Z,93059.00
2023-05-02T10:38:12.054Z,93055.00
2023-05-02T10:39:12.012Z,93055.00
2023-05-02T10:40:11.998Z,93057.00
2023-05-02T10:41:11.973Z,93057.00
2023-05-02T10:42:11.973Z,93057.00
2023-05-02T10:43:11.949Z,93053.00
2023-05-02T10:44:11.935Z,93053.00
2023-05-02T10:45:11.905Z,93051.00
2023-05-02T10:46:11.927Z,93049.00
2023-05-02T10:47:11.870Z,93049.00
2023-05-02T10:48:12.425Z,93049.00
2023-05-02T10:49:11.839Z,93051.00
2023-05-02T10:50:11.868Z,93049.00
2023-05-02T10:51:11.821Z,93047.00
2023-05-02T10:52:11.810Z,93043.00
2023-05-02T10:53:11.796Z,93047.00
2023-05-02T10:54:12.276Z,93051.00
2023-05-02T10:55:11.769Z,93045.00
2023-05-02T10:56:11.754Z,93041.00
2023-05-02T10:57:11.745Z,93041.00
2023-05-02T10:58:11.789Z,93043.00
2023-05-02T10:59:11.725Z,93037.00
2023-05-02T11:00:11.729Z,93037.00
2023-05-02T11:01:11.751Z,93037.00
2023-05-02T11:02:11.764Z,93037.00
2023-05-02T11:03:11.826Z,93032.00
2023-05-02T11:04:11.698Z,93030.00
2023-05-02T11:05:12.334Z,93034.00
2023-05-02T11:06:11.807Z,93028.00
2023-05-02T11:07:11.704Z,93035.00
2023-05-02T11:08:11.703Z,93034.00
2023-05-02T11:09:11.700Z,93030.00
2023-05-02T11:10:11.726Z,93030.00
2023-05-02T11:11:11.683Z,93030.00
2023-05-02T11:12:11.705Z,93028.00
2023-05-02T11:13:11.706Z,93030.00
2023-05-02T11:14:11.692Z,93032.00
2023-05-02T11:15:12.288Z,93028.00
2023-05-02T11:16:11.689Z,93030.00
2023-05-02T11:17:11.695Z,93028.00
2023-05-02T11:18:12.549Z,93028.00
2023-05-02T11:19:11.675Z,93028.00
2023-05-02T11:20:11.668Z,93024.00
2023-05-02T11:21:11.679Z,93024.00
2023-05-02T11:22:12.283Z,93026.00
2023-05-02T11:23:11.677Z,93024.00
2023-05-02T11:24:11.679Z,93022.00
2023-05-02T11:25:11.690Z,93026.00
2023-05-02T11:26:11.685Z,93028.00
2023-05-02T11:27:11.682Z,93026.00
2023-05-02T11:28:11.677Z,93022.00
2023-05-02T11:29:11.681Z,93028.00
2023-05-02T11:30:11.693Z,93026.00
2023-05-02T11:31:11.688Z,93022.00
2023-05-02T11:32:11.729Z,93026.00
2023-05-02T11:33:11.743Z,93030.00
2023-05-02T11:34:11.710Z,93026.00
2023-05-02T11:35:11.717Z,93026.00
2023-05-02T11:36:11.727Z,93024.00
2023-05-02T11:37:11.735Z,93026.00
2023-05-02T11:38:11.747Z,93024.00
2023-05-02T11:39:11.755Z,93020.00
2023-05-02T11:40:12.303Z,93020.00
2023-05-02T11:41:11.770Z,93022.00
2023-05-02T11:42:11.789Z,93024.00
2023-05-02T11:43:11.804Z,93022.00
2023-05-02T11:44:11.828Z,93022.00